createdAt,value
2023-01-17T00:00:22.161Z,98.000000
2023-01-17T00:05:24.285Z,98.000000
2023-01-17T00:10:26.405Z,98.000000
2023-01-17T00:15:28.400Z,98.400000
2023-01-17T00:20:30.569Z,99.000000
2023-01-17T00:25:32.992Z,99.000000
2023-01-17T00:30:35.321Z,99.000000
2023-01-17T00:35:17.099Z,99.000000
2023-01-17T00:40:19.662Z,99.000000
2023-01-17T00:45:21.689Z,99.000000
2023-01-17T00:50:23.717Z,99.000000
2023-01-17T00:55:25.938Z,99.000000
2023-01-17T01:00:28.235Z,99.000000
2023-01-17T01:05:30.656Z,99.000000
2023-01-17T01:10:32.826Z,99.000000
2023-01-17T01:15:35.169Z,99.000000
2023-01-17T01:20:17.589Z,99.000000
2023-01-17T01:25:19.859Z,99.000000
2023-01-17T01:30:23.295Z,99.000000
2023-01-17T01:35:24.409Z,99.000000
2023-01-17T01:40:27.217Z,99.000000
2023-01-17T01:45:29.748Z,99.000000
2023-01-17T01:50:31.976Z,99.000000
2023-01-17T01:55:34.425Z,99.000000
2023-01-17T02:00:16.549Z,99.000000
2023-01-17T02:05:18.713Z,99.000000
2023-01-17T02:10:20.974Z,99.000000
2023-01-17T02:15:23.657Z,99.000000
2023-01-17T02:20:25.607Z,99.000000
2023-01-17T02:25:28.090Z,99.000000
2023-01-17T02:30:30.424Z,99.000000
2023-01-17T02:35:32.791Z,99.000000
2023-01-17T02:40:35.370Z,99.000000
2023-01-17T02:45:17.579Z,99.000000
2023-01-17T02:50:20.217Z,99.000000
2023-01-17T02:55:22.385Z,99.000000
2023-01-17T03:00:24.658Z,99.000000
2023-01-17T03:05:27.087Z,99.000000
2023-01-17T03:10:29.398Z,99.000000
2023-01-17T03:15:31.803Z,99.000000
2023-01-17T03:20:34.118Z,99.000000
2023-01-17T03:25:16.259Z,99.000000
2023-01-17T03:30:18.514Z,99.000000
2023-01-17T03:35:21.064Z,99.000000
2023-01-17T03:40:23.498Z,99.000000
2023-01-17T03:45:25.655Z,99.000000
2023-01-17T03:50:28.147Z,99.000000
2023-01-17T03:55:30.555Z,99.000000
2023-01-17T04:00:33.243Z,99.000000
2023-01-17T04:05:35.351Z,99.000000
2023-01-17T04:10:17.477Z,99.000000
2023-01-17T04:15:20.080Z,99.000000
2023-01-17T04:20:22.329Z,99.000000
2023-01-17T04:25:24.678Z,99.000000
2023-01-17T04:30:26.988Z,99.000000
2023-01-17T04:35:29.175Z,99.000000
2023-01-17T04:40:31.735Z,99.000000
2023-01-17T04:45:34.573Z,99.000000
2023-01-17T04:50:17.114Z,99.000000
2023-01-17T04:55:20.729Z,99.000000
2023-01-17T05:00:28.333Z,99.000000
2023-01-17T05:05:31.160Z,99.000000
2023-01-17T05:10:33.653Z,99.000000
2023-01-17T05:15:16.108Z,99.000000
2023-01-17T05:20:18.610Z,99.000000
2023-01-17T05:25:21.340Z,99.000000
2023-01-17T05:30:23.824Z,99.000000
2023-01-17T05:35:26.590Z,99.000000
2023-01-17T05:40:28.898Z,99.000000
2023-01-17T05:45:32.483Z,99.000000
2023-01-17T05:50:36.594Z,99.000000
2023-01-17T05:55:19.101Z,99.000000
2023-01-17T06:00:22.181Z,99.000000
2023-01-17T06:05:25.259Z,99.000000
2023-01-17T06:10:27.789Z,99.000000
2023-01-17T06:15:31.036Z,99.000000
2023-01-17T06:20:34.550Z,99.000000
2023-01-17T06:25:16.556Z,99.000000
2023-01-17T06:30:19.385Z,99.000000
2023-01-17T06:35:21.942Z,99.000000
2023-01-17T06:40:24.302Z,99.000000
2023-01-17T06:45:26.746Z,99.000000
2023-01-17T06:50:29.689Z,99.000000
2023-01-17T06:55:32.401Z,99.000000
2023-01-17T07:00:34.797Z,99.000000
2023-01-17T07:05:17.487Z,99.000000
2023-01-17T07:10:19.398Z,99.000000
2023-01-17T07:15:21.806Z,99.000000
2023-01-17T07:20:23.934Z,99.000000
2023-01-17T07:25:27.778Z,99.000000
2023-01-17T07:30:28.576Z,99.000000
2023-01-17T07:35:30.724Z,99.000000
2023-01-17T07:40:38.711Z,99.000000
2023-01-17T07:45:35.399Z,99.000000
2023-01-17T07:50:17.072Z,99.000000
2023-01-17T07:55:19.396Z,99.000000
2023-01-17T08:00:21.614Z,99.000000
2023-01-17T08:05:23.812Z,99.000000
2023-01-17T08:10:26.376Z,99.000000
2023-01-17T08:15:28.633Z,99.000000
2023-01-17T08:20:30.921Z,99.000000
2023-01-17T08:25:33.163Z,99.000000
2023-01-17T08:30:35.759Z,99.000000
2023-01-17T08:35:17.641Z,99.000000
2023-01-17T08:40:19.865Z,99.000000
2023-01-17T08:45:21.995Z,99.000000
2023-01-17T08:50:24.102Z,99.000000
2023-01-17T08:55:26.348Z,99.000000
2023-01-17T09:00:29.502Z,99.000000
2023-01-17T09:05:32.414Z,99.000000
2023-01-17T09:10:35.356Z,99.000000
2023-01-17T09:15:16.856Z,99.000000
2023-01-17T09:20:19.291Z,99.000000
2023-01-17T09:25:21.532Z,99.000000
2023-01-17T09:30:23.706Z,99.000000
2023-01-17T09:35:25.857Z,99.000000
2023-01-17T09:40:28.077Z,99.000000
2023-01-17T09:45:30.183Z,99.000000
2023-01-17T09:50:32.582Z,99.000000
2023-01-17T09:55:34.699Z,99.000000
2023-01-17T10:00:16.890Z,99.000000
2023-01-17T10:05:19.311Z,99.000000
2023-01-17T10:10:21.629Z,99.000000
2023-01-17T10:15:23.991Z,99.000000
2023-01-17T10:20:26.359Z,99.000000
2023-01-17T10:25:28.492Z,99.000000
2023-01-17T10:30:30.578Z,99.000000
2023-01-17T10:35:32.873Z,99.000000
2023-01-17T10:40:35.183Z,99.000000
2023-01-17T10:45:17.062Z,99.000000
2023-01-17T10:50:19.463Z,99.000000
2023-01-17T10:55:21.531Z,99.000000
2023-01-17T11:00:24.080Z,99.000000
2023-01-17T11:05:26.240Z,99.000000
2023-01-17T11:10:28.333Z,99.000000
2023-01-17T11:15:30.600Z,99.000000
2023-01-17T11:20:32.916Z,99.000000
2023-01-17T11:25:35.197Z,99.000000
2023-01-17T11:30:17.225Z,99.000000
2023-01-17T11:35:20.335Z,99.000000
2023-01-17T11:40:21.617Z,99.000000
2023-01-17T11:45:23.949Z,99.000000
2023-01-17T11:50:26.112Z,99.000000
2023-01-17T11:55:28.553Z,99.000000
2023-01-17T12:00:30.658Z,99.000000
2023-01-17T12:05:32.899Z,99.000000
2023-01-17T12:10:35.057Z,99.000000
2023-01-17T12:15:16.988Z,99.000000
2023-01-17T12:20:19.275Z,99.000000
2023-01-17T12:25:21.393Z,99.000000
2023-01-17T12:30:23.453Z,99.000000
2023-01-17T12:35:25.684Z,99.000000
2023-01-17T12:40:27.845Z,99.000000
2023-01-17T12:45:30.109Z,99.000000
2023-01-17T12:50:32.154Z,99.000000
2023-01-17T12:55:34.735Z,99.000000
2023-01-17T13:00:16.220Z,99.000000
2023-01-17T13:05:18.449Z,99.000000
2023-01-17T13:10:20.889Z,99.000000
2023-01-17T13:15:23.088Z,99.000000
2023-01-17T13:20:25.335Z,99.000000
2023-01-17T13:25:27.358Z,99.000000
2023-01-17T13:30:29.569Z,99.000000
2023-01-17T13:35:31.812Z,99.000000
2023-01-17T13:40:34.412Z,99.000000
2023-01-17T13:45:16.155Z,99.000000
2023-01-17T13:50:18.371Z,99.000000
2023-01-17T13:55:21.700Z,99.000000
2023-01-17T14:00:23.059Z,99.000000
2023-01-17T14:05:25.651Z,99.000000
2023-01-17T14:10:27.720Z,99.000000
2023-01-17T14:15:29.971Z,99.000000
2023-01-17T14:20:32.486Z,99.000000
2023-01-17T14:25:34.877Z,99.000000
2023-01-17T14:30:17.005Z,99.000000
2023-01-17T14:35:19.503Z,99.000000
2023-01-17T14:40:22.103Z,99.000000
2023-01-17T14:45:24.379Z,99.000000
2023-01-17T14:50:26.498Z,99.000000
2023-01-17T14:55:28.786Z,99.000000
2023-01-17T15:00:30.883Z,99.000000
2023-01-17T15:05:33.106Z,99.000000
2023-01-17T15:10:35.239Z,99.000000
2023-01-17T15:15:17.272Z,99.000000
2023-01-17T15:20:19.612Z,99.000000
2023-01-17T15:25:21.406Z,99.000000
2023-01-17T15:30:23.707Z,99.000000
2023-01-17T15:35:25.851Z,99.000000
2023-01-17T15:40:27.962Z,99.000000
2023-01-17T15:45:30.200Z,99.000000
2023-01-17T15:50:32.487Z,99.000000
2023-01-17T15:55:34.749Z,99.000000
2023-01-17T16:00:16.728Z,99.000000
2023-01-17T16:05:19.359Z,99.000000
2023-01-17T16:10:20.990Z,99.000000
2023-01-17T16:15:23.156Z,99.000000
2023-01-17T16:20:25.195Z,99.000000
2023-01-17T16:25:27.226Z,99.000000
2023-01-17T16:30:29.365Z,99.000000
2023-01-17T16:35:16.326Z,99.000000
2023-01-17T16:40:18.610Z,99.000000
2023-01-17T16:45:20.453Z,99.000000
2023-01-17T16:50:22.542Z,99.000000
2023-01-17T16:55:24.868Z,99.000000
2023-01-17T17:00:26.843Z,99.000000
2023-01-17T17:05:29.141Z,99.000000
2023-01-17T17:10:31.449Z,99.000000
2023-01-17T17:15:33.581Z,99.000000
2023-01-17T17:20:35.961Z,99.000000
2023-01-17T17:25:17.966Z,99.000000
2023-01-17T17:30:20.376Z,99.000000
2023-01-17T17:35:22.416Z,99.000000
2023-01-17T17:40:24.388Z,99.000000
2023-01-17T17:45:26.426Z,99.000000
2023-01-17T17:50:28.471Z,99.000000
2023-01-17T17:55:30.820Z,99.000000
2023-01-17T18:00:32.949Z,99.000000
2023-01-17T18:05:34.946Z,99.000000
2023-01-17T18:10:16.764Z,99.000000
2023-01-17T18:15:18.872Z,99.000000
2023-01-17T18:20:21.171Z,99.000000
2023-01-17T18:25:23.104Z,99.000000
2023-01-17T18:30:25.174Z,99.000000
2023-01-17T18:35:27.549Z,99.000000
2023-01-17T18:40:29.658Z,99.000000
2023-01-17T18:45:31.769Z,99.000000
2023-01-17T18:50:33.899Z,99.000000
2023-01-17T18:55:35.781Z,99.000000
2023-01-17T19:00:18.850Z,99.000000
2023-01-17T19:05:20.120Z,99.000000
2023-01-17T19:10:22.398Z,99.000000
2023-01-17T19:15:25.344Z,99.000000
2023-01-17T19:20:26.464Z,99.000000
2023-01-17T19:25:28.542Z,99.000000
2023-01-17T19:30:30.561Z,99.000000
2023-01-17T19:35:32.851Z,98.200000
2023-01-17T19:40:34.906Z,98.000000
2023-01-17T19:45:16.514Z,98.000000
2023-01-17T19:50:18.657Z,97.000000
2023-01-17T19:55:20.876Z,96.866667
2023-01-17T20:00:29.933Z,96.000000
2023-01-17T20:05:25.122Z,96.000000
2023-01-17T20:10:27.452Z,96.000000
2023-01-17T20:15:29.712Z,95.800000
2023-01-17T20:20:31.724Z,95.133333
2023-01-17T20:25:33.933Z,94.933333
2023-01-17T20:30:36.200Z,94.000000
2023-01-17T20:35:17.909Z,93.600000
2023-01-17T20:40:20.073Z,93.000000
2023-01-17T20:45:22.284Z,92.785714
2023-01-17T20:50:24.343Z,92.333333
2023-01-17T20:55:26.401Z,92.333333
2023-01-17T21:00:28.383Z,91.933333
2023-01-17T21:05:30.662Z,91.600000
2023-01-17T21:10:32.729Z,91.866667
2023-01-17T21:15:35.009Z,92.000000
2023-01-17T21:20:17.014Z,92.000000
2023-01-17T21:25:19.217Z,92.000000
2023-01-17T21:30:21.323Z,91.933333
2023-01-17T21:35:23.528Z,91.642857
2023-01-17T21:40:25.970Z,91.000000
2023-01-17T21:45:27.943Z,91.000000
2023-01-17T21:50:33.585Z,90.400000
2023-01-17T21:55:32.468Z,89.800000
2023-01-17T22:00:34.700Z,88.666667
2023-01-17T22:05:16.964Z,88.000000
2023-01-17T22:10:19.213Z,87.466667
2023-01-17T22:15:21.596Z,85.600000
2023-01-17T22:20:24.023Z,83.714286
2023-01-17T22:25:26.253Z,84.000000
2023-01-17T22:30:28.701Z,84.200000
2023-01-17T22:35:30.746Z,84.933333
2023-01-17T22:40:33.005Z,84.000000
2023-01-17T22:45:35.309Z,84.333333
2023-01-17T22:50:17.443Z,84.000000
2023-01-17T22:55:19.821Z,83.466667
2023-01-17T23:00:21.969Z,82.333333
2023-01-17T23:05:24.397Z,81.857143
2023-01-17T23:10:26.510Z,81.933333
2023-01-17T23:15:28.822Z,81.666667
2023-01-17T23:20:31.478Z,80.666667
2023-01-17T23:25:33.596Z,80.466667
2023-01-17T23:30:36.202Z,82.266667
2023-01-17T23:35:17.757Z,81.466667
2023-01-17T23:40:19.915Z,81.800000
2023-01-17T23:45:22.151Z,81.866667
2023-01-17T23:50:24.240Z,81.571429
2023-01-17T23:55:26.501Z,82.133333
